sensor_id;sensor_type;location;lat;lon;timestamp;pressure;altitude;pressure_sealevel;temperature;humidity
12949;BME280;6539;49.476;8.484;2022-09-12T00:01:18;100669.63;;;19.24;74.95
12949;BME280;6539;49.476;8.484;2022-09-12T00:03:45;100654.50;;;19.25;75.05
12949;BME280;6539;49.476;8.484;2022-09-12T00:06:35;100663.47;;;19.29;74.67
12949;BME280;6539;49.476;8.484;2022-09-12T00:09:11;100657.75;;;19.32;74.43
12949;BME280;6539;49.476;8.484;2022-09-12T00:11:40;100661.78;;;19.31;74.08
12949;BME280;6539;49.476;8.484;2022-09-12T00:14:13;100660.09;;;19.34;74.23
12949;BME280;6539;49.476;8.484;2022-09-12T00:16:39;100664.34;;;19.38;74.00
12949;BME280;6539;49.476;8.484;2022-09-12T00:19:10;100656.72;;;19.39;73.76
12949;BME280;6539;49.476;8.484;2022-09-12T00:21:40;100659.66;;;19.35;73.71
12949;BME280;6539;49.476;8.484;2022-09-12T00:24:07;100645.09;;;19.31;73.74
12949;BME280;6539;49.476;8.484;2022-09-12T00:26:34;100649.41;;;19.23;74.09
12949;BME280;6539;49.476;8.484;2022-09-12T00:28:59;100653.09;;;19.20;74.60
12949;BME280;6539;49.476;8.484;2022-09-12T00:31:28;100653.41;;;19.22;74.82
12949;BME280;6539;49.476;8.484;2022-09-12T00:34:01;100640.41;;;19.19;74.49
12949;BME280;6539;49.476;8.484;2022-09-12T00:36:31;100645.19;;;19.19;74.49
12949;BME280;6539;49.476;8.484;2022-09-12T00:38:57;100641.47;;;19.13;74.73
12949;BME280;6539;49.476;8.484;2022-09-12T00:41:38;100646.25;;;19.12;74.85
12949;BME280;6539;49.476;8.484;2022-09-12T00:52:17;100646.22;;;19.03;75.06
12949;BME280;6539;49.476;8.484;2022-09-12T00:55:14;100644.00;;;18.98;75.49
12949;BME280;6539;49.476;8.484;2022-09-12T00:57:55;100636.91;;;18.97;75.52
12949;BME280;6539;49.476;8.484;2022-09-12T01:00:25;100641.53;;;18.91;75.94
12949;BME280;6539;49.476;8.484;2022-09-12T01:03:00;100638.06;;;18.87;76.32
12949;BME280;6539;49.476;8.484;2022-09-12T01:05:28;100630.50;;;18.87;76.52
12949;BME280;6539;49.476;8.484;2022-09-12T01:08:02;100630.06;;;18.89;76.61
12949;BME280;6539;49.476;8.484;2022-09-12T01:10:28;100632.50;;;18.87;76.99
12949;BME280;6539;49.476;8.484;2022-09-12T01:12:55;100634.41;;;18.90;76.71
12949;BME280;6539;49.476;8.484;2022-09-12T01:15:23;100635.63;;;18.89;76.46
12949;BME280;6539;49.476;8.484;2022-09-12T01:18:18;100632.84;;;18.89;76.35
12949;BME280;6539;49.476;8.484;2022-09-12T01:27:08;100626.03;;;18.90;76.41
12949;BME280;6539;49.476;8.484;2022-09-12T01:30:37;100621.25;;;18.90;76.53
12949;BME280;6539;49.476;8.484;2022-09-12T01:33:54;100622.16;;;18.87;76.64
12949;BME280;6539;49.476;8.484;2022-09-12T01:37:34;100620.75;;;18.83;77.17
12949;BME280;6539;49.476;8.484;2022-09-12T01:40:45;100622.91;;;18.79;77.33
12949;BME280;6539;49.476;8.484;2022-09-12T01:43:21;100618.56;;;18.78;77.29
12949;BME280;6539;49.476;8.484;2022-09-12T01:51:40;100616.84;;;18.71;76.52
12949;BME280;6539;49.476;8.484;2022-09-12T01:54:49;100606.75;;;18.65;76.59
12949;BME280;6539;49.476;8.484;2022-09-12T01:57:26;100613.53;;;18.64;76.12
12949;BME280;6539;49.476;8.484;2022-09-12T01:59:59;100604.56;;;18.60;76.18
12949;BME280;6539;49.476;8.484;2022-09-12T02:05:15;100600.34;;;18.55;76.51
12949;BME280;6539;49.476;8.484;2022-09-12T02:08:04;100602.03;;;18.53;76.58
12949;BME280;6539;49.476;8.484;2022-09-12T02:10:42;100602.97;;;18.50;76.78
12949;BME280;6539;49.476;8.484;2022-09-12T02:13:37;100600.50;;;18.52;76.61
12949;BME280;6539;49.476;8.484;2022-09-12T02:21:51;100600.41;;;18.43;76.16
12949;BME280;6539;49.476;8.484;2022-09-12T02:24:32;100598.84;;;18.42;75.94
12949;BME280;6539;49.476;8.484;2022-09-12T02:27:12;100599.78;;;18.39;75.53
12949;BME280;6539;49.476;8.484;2022-09-12T02:29:40;100595.88;;;18.36;75.65
12949;BME280;6539;49.476;8.484;2022-09-12T02:32:29;100596.03;;;18.33;75.68
12949;BME280;6539;49.476;8.484;2022-09-12T02:40:31;100591.19;;;18.24;74.95
12949;BME280;6539;49.476;8.484;2022-09-12T02:42:58;100589.75;;;18.19;74.90
12949;BME280;6539;49.476;8.484;2022-09-12T02:45:27;100596.09;;;18.20;75.17
12949;BME280;6539;49.476;8.484;2022-09-12T02:50:37;100585.56;;;18.15;75.03
12949;BME280;6539;49.476;8.484;2022-09-12T02:53:07;100591.69;;;18.10;74.81
12949;BME280;6539;49.476;8.484;2022-09-12T02:55:36;100597.25;;;18.10;74.94
12949;BME280;6539;49.476;8.484;2022-09-12T02:58:07;100587.06;;;18.07;75.24
12949;BME280;6539;49.476;8.484;2022-09-12T03:00:43;100588.13;;;18.09;75.35
12949;BME280;6539;49.476;8.484;2022-09-12T03:03:25;100587.38;;;18.09;75.24
12949;BME280;6539;49.476;8.484;2022-09-12T03:06:04;100589.38;;;18.08;75.30
12949;BME280;6539;49.476;8.484;2022-09-12T03:20:20;100578.25;;;18.08;75.27
12949;BME280;6539;49.476;8.484;2022-09-12T03:22:58;100575.16;;;18.06;75.37
12949;BME280;6539;49.476;8.484;2022-09-12T03:25:58;100575.25;;;18.03;75.22
12949;BME280;6539;49.476;8.484;2022-09-12T03:28:29;100568.94;;;18.02;75.15
12949;BME280;6539;49.476;8.484;2022-09-12T03:30:55;100570.50;;;18.03;75.30
12949;BME280;6539;49.476;8.484;2022-09-12T03:33:25;100575.72;;;18.01;75.48
12949;BME280;6539;49.476;8.484;2022-09-12T03:35:54;100573.41;;;18.00;75.23
12949;BME280;6539;49.476;8.484;2022-09-12T03:38:20;100575.41;;;17.99;74.62
12949;BME280;6539;49.476;8.484;2022-09-12T03:40:48;100575.41;;;17.99;74.33
12949;BME280;6539;49.476;8.484;2022-09-12T03:43:14;100568.31;;;17.98;73.75
12949;BME280;6539;49.476;8.484;2022-09-12T03:45:40;100577.53;;;17.95;73.71
12949;BME280;6539;49.476;8.484;2022-09-12T03:48:08;100573.31;;;17.91;73.75
12949;BME280;6539;49.476;8.484;2022-09-12T03:50:34;100575.78;;;17.89;73.50
12949;BME280;6539;49.476;8.484;2022-09-12T03:53:03;100572.34;;;17.85;73.64
12949;BME280;6539;49.476;8.484;2022-09-12T03:55:28;100568.78;;;17.84;73.73
12949;BME280;6539;49.476;8.484;2022-09-12T03:57:55;100571.25;;;17.82;73.65
12949;BME280;6539;49.476;8.484;2022-09-12T04:00:21;100571.72;;;17.81;73.79
12949;BME280;6539;49.476;8.484;2022-09-12T04:02:54;100574.03;;;17.82;73.81
12949;BME280;6539;49.476;8.484;2022-09-12T04:05:23;100568.94;;;17.81;73.82
12949;BME280;6539;49.476;8.484;2022-09-12T04:07:50;100563.81;;;17.79;73.78
12949;BME280;6539;49.476;8.484;2022-09-12T04:10:18;100562.72;;;17.77;73.90
12949;BME280;6539;49.476;8.484;2022-09-12T04:12:44;100571.81;;;17.77;73.78
12949;BME280;6539;49.476;8.484;2022-09-12T04:15:10;100569.97;;;17.74;73.55
12949;BME280;6539;49.476;8.484;2022-09-12T04:17:36;100567.97;;;17.75;73.96
12949;BME280;6539;49.476;8.484;2022-09-12T04:20:05;100574.72;;;17.74;74.12
12949;BME280;6539;49.476;8.484;2022-09-12T04:22:33;100579.50;;;17.73;73.69
12949;BME280;6539;49.476;8.484;2022-09-12T04:24:59;100572.09;;;17.70;73.52
12949;BME280;6539;49.476;8.484;2022-09-12T04:27:25;100567.88;;;17.66;74.08
12949;BME280;6539;49.476;8.484;2022-09-12T04:29:51;100573.09;;;17.64;74.40
12949;BME280;6539;49.476;8.484;2022-09-12T04:32:18;100572.66;;;17.65;74.19
12949;BME280;6539;49.476;8.484;2022-09-12T04:34:44;100574.97;;;17.67;74.24
12949;BME280;6539;49.476;8.484;2022-09-12T04:37:11;100573.44;;;17.66;74.14
12949;BME280;6539;49.476;8.484;2022-09-12T04:39:39;100574.31;;;17.63;74.37
12949;BME280;6539;49.476;8.484;2022-09-12T04:42:07;100579.88;;;17.63;74.32
12949;BME280;6539;49.476;8.484;2022-09-12T04:44:33;100565.53;;;17.64;74.73
12949;BME280;6539;49.476;8.484;2022-09-12T04:47:01;100569.53;;;17.63;74.64
12949;BME280;6539;49.476;8.484;2022-09-12T04:49:28;100569.53;;;17.63;74.44
12949;BME280;6539;49.476;8.484;2022-09-12T04:51:56;100570.66;;;17.66;74.35
12949;BME280;6539;49.476;8.484;2022-09-12T04:54:24;100568.44;;;17.61;74.32
12949;BME280;6539;49.476;8.484;2022-09-12T04:56:53;100569.88;;;17.65;74.28
12949;BME280;6539;49.476;8.484;2022-09-12T04:59:21;100571.75;;;17.68;74.25
12949;BME280;6539;49.476;8.484;2022-09-12T05:01:47;100573.63;;;17.71;73.79
12949;BME280;6539;49.476;8.484;2022-09-12T05:04:13;100565.41;;;17.68;73.60
12949;BME280;6539;49.476;8.484;2022-09-12T05:06:41;100566.31;;;17.65;73.99
12949;BME280;6539;49.476;8.484;2022-09-12T05:09:11;100566.78;;;17.63;73.82
12949;BME280;6539;49.476;8.484;2022-09-12T05:11:40;100563.53;;;17.65;74.03
12949;BME280;6539;49.476;8.484;2022-09-12T05:14:10;100563.09;;;17.66;73.88
12949;BME280;6539;49.476;8.484;2022-09-12T05:16:38;100561.41;;;17.69;73.80
12949;BME280;6539;49.476;8.484;2022-09-12T05:19:05;100564.19;;;17.69;73.91
12949;BME280;6539;49.476;8.484;2022-09-12T05:21:33;100572.09;;;17.70;73.52
12949;BME280;6539;49.476;8.484;2022-09-12T05:23:59;100571.75;;;17.68;73.70
12949;BME280;6539;49.476;8.484;2022-09-12T05:26:26;100572.97;;;17.67;73.59
12949;BME280;6539;49.476;8.484;2022-09-12T05:28:54;100573.28;;;17.69;73.65
12949;BME280;6539;49.476;8.484;2022-09-12T05:31:25;100576.84;;;17.70;73.43
12949;BME280;6539;49.476;8.484;2022-09-12T05:33:55;100580.97;;;17.65;73.54
12949;BME280;6539;49.476;8.484;2022-09-12T05:36:28;100577.00;;;17.66;73.47
12949;BME280;6539;49.476;8.484;2022-09-12T05:38:59;100572.66;;;17.65;73.80
12949;BME280;6539;49.476;8.484;2022-09-12T05:41:30;100575.09;;;17.63;73.81
12949;BME280;6539;49.476;8.484;2022-09-12T05:44:01;100576.78;;;17.61;73.76
12949;BME280;6539;49.476;8.484;2022-09-12T05:46:38;100580.66;;;17.63;73.76
12949;BME280;6539;49.476;8.484;2022-09-12T05:49:08;100585.41;;;17.63;73.49
12949;BME280;6539;49.476;8.484;2022-09-12T05:51:43;100583.44;;;17.63;73.98
12949;BME280;6539;49.476;8.484;2022-09-12T05:54:13;100579.88;;;17.63;74.13
12949;BME280;6539;49.476;8.484;2022-09-12T05:56:44;100583.19;;;17.70;73.90
12949;BME280;6539;49.476;8.484;2022-09-12T05:59:19;100587.75;;;17.98;73.75
12949;BME280;6539;49.476;8.484;2022-09-12T06:01:48;100591.56;;;18.57;72.23
12949;BME280;6539;49.476;8.484;2022-09-12T06:04:14;100587.50;;;19.10;69.06
12949;BME280;6539;49.476;8.484;2022-09-12T06:06:44;100581.91;;;19.68;66.83
12949;BME280;6539;49.476;8.484;2022-09-12T06:09:12;100592.00;;;20.29;64.73
12949;BME280;6539;49.476;8.484;2022-09-12T06:11:42;100587.22;;;20.80;61.17
12949;BME280;6539;49.476;8.484;2022-09-12T06:14:13;100599.28;;;21.28;59.89
12949;BME280;6539;49.476;8.484;2022-09-12T06:16:40;100592.69;;;21.64;58.48
12949;BME280;6539;49.476;8.484;2022-09-12T06:19:23;100592.16;;;21.98;56.45
12949;BME280;6539;49.476;8.484;2022-09-12T06:21:52;100593.44;;;22.41;55.45
12949;BME280;6539;49.476;8.484;2022-09-12T06:24:19;100582.59;;;22.72;54.29
12949;BME280;6539;49.476;8.484;2022-09-12T06:26:49;100583.06;;;23.20;52.91
12949;BME280;6539;49.476;8.484;2022-09-12T06:29:19;100584.53;;;23.70;51.34
12949;BME280;6539;49.476;8.484;2022-09-12T06:31:47;100581.50;;;24.14;49.70
12949;BME280;6539;49.476;8.484;2022-09-12T06:34:16;100574.41;;;24.44;48.63
12949;BME280;6539;49.476;8.484;2022-09-12T06:36:45;100578.13;;;24.61;48.35
12949;BME280;6539;49.476;8.484;2022-09-12T06:39:14;100576.31;;;24.84;47.86
12949;BME280;6539;49.476;8.484;2022-09-12T06:41:41;100572.81;;;25.00;46.80
12949;BME280;6539;49.476;8.484;2022-09-12T06:44:18;100572.28;;;25.33;46.83
12949;BME280;6539;49.476;8.484;2022-09-12T06:46:44;100575.03;;;25.64;45.84
12949;BME280;6539;49.476;8.484;2022-09-12T06:49:13;100568.22;;;25.98;44.52
12949;BME280;6539;49.476;8.484;2022-09-12T06:51:44;100574.19;;;26.11;44.71
12949;BME280;6539;49.476;8.484;2022-09-12T06:54:14;100575.72;;;26.18;44.14
12949;BME280;6539;49.476;8.484;2022-09-12T06:56:43;100579.34;;;26.35;44.03
12949;BME280;6539;49.476;8.484;2022-09-12T06:59:11;100581.09;;;26.21;44.08
12949;BME280;6539;49.476;8.484;2022-09-12T07:01:42;100584.44;;;26.42;44.11
12949;BME280;6539;49.476;8.484;2022-09-12T07:04:08;100586.56;;;26.80;43.95
12949;BME280;6539;49.476;8.484;2022-09-12T07:06:40;100589.06;;;27.23;43.43
12949;BME280;6539;49.476;8.484;2022-09-12T07:09:11;100590.03;;;27.53;42.31
12949;BME280;6539;49.476;8.484;2022-09-12T07:11:41;100592.06;;;27.58;41.80
12949;BME280;6539;49.476;8.484;2022-09-12T07:14:10;100593.66;;;27.31;42.45
12949;BME280;6539;49.476;8.484;2022-09-12T07:16:40;100585.22;;;27.37;42.57
12949;BME280;6539;49.476;8.484;2022-09-12T07:19:07;100584.53;;;27.82;41.88
12949;BME280;6539;49.476;8.484;2022-09-12T07:21:35;100581.19;;;28.30;40.91
12949;BME280;6539;49.476;8.484;2022-09-12T07:24:05;100583.34;;;28.59;40.15
12949;BME280;6539;49.476;8.484;2022-09-12T07:26:36;100589.00;;;28.89;39.42
12949;BME280;6539;49.476;8.484;2022-09-12T07:29:08;100589.88;;;29.03;38.44
12949;BME280;6539;49.476;8.484;2022-09-12T07:31:37;100585.00;;;29.03;38.25
12949;BME280;6539;49.476;8.484;2022-09-12T07:34:05;100586.09;;;28.95;38.05
12949;BME280;6539;49.476;8.484;2022-09-12T07:36:34;100580.50;;;28.59;38.55
12949;BME280;6539;49.476;8.484;2022-09-12T07:39:02;100579.44;;;28.62;38.74
12949;BME280;6539;49.476;8.484;2022-09-12T07:41:30;100583.72;;;28.34;39.04
12949;BME280;6539;49.476;8.484;2022-09-12T07:44:02;100582.28;;;28.22;39.70
12949;BME280;6539;49.476;8.484;2022-09-12T07:46:32;100581.91;;;28.01;40.11
12949;BME280;6539;49.476;8.484;2022-09-12T07:48:59;100586.25;;;27.97;40.62
12949;BME280;6539;49.476;8.484;2022-09-12T07:51:28;100580.22;;;28.22;40.06
12949;BME280;6539;49.476;8.484;2022-09-12T07:53:55;100579.69;;;28.64;39.25
12949;BME280;6539;49.476;8.484;2022-09-12T07:56:21;100593.31;;;28.96;38.57
12949;BME280;6539;49.476;8.484;2022-09-12T07:58:47;100589.25;;;29.15;38.07
12949;BME280;6539;49.476;8.484;2022-09-12T08:01:19;100584.56;;;29.48;37.49
12949;BME280;6539;49.476;8.484;2022-09-12T08:03:53;100585.03;;;29.52;36.53
12949;BME280;6539;49.476;8.484;2022-09-12T08:06:21;100585.34;;;29.24;37.51
12949;BME280;6539;49.476;8.484;2022-09-12T08:08:49;100578.09;;;29.28;37.35
12949;BME280;6539;49.476;8.484;2022-09-12T08:11:18;100585.91;;;29.17;38.17
12949;BME280;6539;49.476;8.484;2022-09-12T08:13:46;100578.09;;;29.28;37.18
12949;BME280;6539;49.476;8.484;2022-09-12T08:16:19;100583.09;;;29.17;38.11
12949;BME280;6539;49.476;8.484;2022-09-12T08:18:47;100572.75;;;28.95;38.13
12949;BME280;6539;49.476;8.484;2022-09-12T08:21:27;100565.06;;;28.90;38.97
12949;BME280;6539;49.476;8.484;2022-09-12T08:24:03;100563.72;;;28.97;38.44
12949;BME280;6539;49.476;8.484;2022-09-12T08:26:31;100574.19;;;29.31;37.70
12949;BME280;6539;49.476;8.484;2022-09-12T08:28:57;100573.78;;;29.22;37.39
12949;BME280;6539;49.476;8.484;2022-09-12T08:31:26;100576.81;;;29.48;37.76
12949;BME280;6539;49.476;8.484;2022-09-12T08:33:55;100572.34;;;29.58;37.07
12949;BME280;6539;49.476;8.484;2022-09-12T08:36:29;100572.38;;;29.34;37.16
12949;BME280;6539;49.476;8.484;2022-09-12T08:38:58;100573.06;;;29.40;37.02
12949;BME280;6539;49.476;8.484;2022-09-12T08:41:56;100576.00;;;29.29;36.50
12949;BME280;6539;49.476;8.484;2022-09-12T08:54:56;100577.66;;;29.19;36.50
12949;BME280;6539;49.476;8.484;2022-09-12T08:57:27;100580.19;;;29.22;36.56
12949;BME280;6539;49.476;8.484;2022-09-12T08:59:55;100569.72;;;29.42;36.46
12949;BME280;6539;49.476;8.484;2022-09-12T09:05:23;100558.00;;;29.93;35.55
12949;BME280;6539;49.476;8.484;2022-09-12T09:11:35;100559.31;;;29.74;36.39
12949;BME280;6539;49.476;8.484;2022-09-12T09:17:33;100565.75;;;29.50;36.13
12949;BME280;6539;49.476;8.484;2022-09-12T09:26:10;100560.78;;;29.80;34.94
12949;BME280;6539;49.476;8.484;2022-09-12T09:31:33;100563.16;;;29.71;35.05
12949;BME280;6539;49.476;8.484;2022-09-12T09:34:14;100569.97;;;29.14;35.90
12949;BME280;6539;49.476;8.484;2022-09-12T09:36:51;100562.72;;;28.64;37.04
12949;BME280;6539;49.476;8.484;2022-09-12T09:39:33;100558.69;;;28.54;37.32
12949;BME280;6539;49.476;8.484;2022-09-12T09:42:43;100553.34;;;28.45;37.28
12949;BME280;6539;49.476;8.484;2022-09-12T09:45:15;100554.16;;;28.40;38.01
12949;BME280;6539;49.476;8.484;2022-09-12T09:47:51;100545.19;;;28.36;37.47
12949;BME280;6539;49.476;8.484;2022-09-12T09:50:19;100550.84;;;28.01;38.77
12949;BME280;6539;49.476;8.484;2022-09-12T09:52:50;100546.13;;;28.15;39.05
12949;BME280;6539;49.476;8.484;2022-09-12T09:55:29;100548.09;;;28.25;38.54
12949;BME280;6539;49.476;8.484;2022-09-12T09:57:57;100549.47;;;28.13;37.89
12949;BME280;6539;49.476;8.484;2022-09-12T10:00:34;100551.03;;;28.14;39.00
12949;BME280;6539;49.476;8.484;2022-09-12T10:05:51;100552.88;;;27.95;39.56
12949;BME280;6539;49.476;8.484;2022-09-12T10:08:27;100544.31;;;28.17;39.25
12949;BME280;6539;49.476;8.484;2022-09-12T10:11:01;100551.13;;;27.92;37.45
12949;BME280;6539;49.476;8.484;2022-09-12T10:13:57;100542.03;;;28.10;37.27
12949;BME280;6539;49.476;8.484;2022-09-12T10:19:02;100531.03;;;28.12;38.13
12949;BME280;6539;49.476;8.484;2022-09-12T10:21:40;100526.88;;;28.13;38.14
12949;BME280;6539;49.476;8.484;2022-09-12T10:24:26;100528.91;;;28.18;38.32
12949;BME280;6539;49.476;8.484;2022-09-12T10:29:46;100519.13;;;28.25;37.05
12949;BME280;6539;49.476;8.484;2022-09-12T10:32:26;100524.19;;;28.32;37.17
12949;BME280;6539;49.476;8.484;2022-09-12T10:35:06;100515.44;;;28.35;36.78
12949;BME280;6539;49.476;8.484;2022-09-12T10:37:38;100512.00;;;28.48;37.24
12949;BME280;6539;49.476;8.484;2022-09-12T10:40:26;100515.59;;;28.78;37.26
12949;BME280;6539;49.476;8.484;2022-09-12T10:42:58;100514.94;;;28.91;36.60
12949;BME280;6539;49.476;8.484;2022-09-12T10:45:30;100527.66;;;29.03;36.42
12949;BME280;6539;49.476;8.484;2022-09-12T10:47:59;100511.78;;;29.00;35.91
12949;BME280;6539;49.476;8.484;2022-09-12T10:53:19;100503.22;;;28.51;34.81
12949;BME280;6539;49.476;8.484;2022-09-12T10:56:22;100499.66;;;28.51;34.72
12949;BME280;6539;49.476;8.484;2022-09-12T11:02:36;100491.44;;;28.77;34.57
12949;BME280;6539;49.476;8.484;2022-09-12T11:05:32;100491.38;;;28.58;34.31
12949;BME280;6539;49.476;8.484;2022-09-12T11:11:35;100484.19;;;28.82;34.11
12949;BME280;6539;49.476;8.484;2022-09-12T11:26:23;100470.19;;;28.71;34.57
12949;BME280;6539;49.476;8.484;2022-09-12T11:35:02;100472.06;;;28.62;34.77
12949;BME280;6539;49.476;8.484;2022-09-12T11:46:32;100454.91;;;28.55;33.66
12949;BME280;6539;49.476;8.484;2022-09-12T11:57:54;100444.66;;;28.52;34.14
12949;BME280;6539;49.476;8.484;2022-09-12T12:00:36;100434.88;;;28.58;33.82
12949;BME280;6539;49.476;8.484;2022-09-12T12:05:54;100441.63;;;28.20;34.40
12949;BME280;6539;49.476;8.484;2022-09-12T12:08:22;100439.28;;;28.24;35.03
12949;BME280;6539;49.476;8.484;2022-09-12T12:13:36;100432.22;;;28.36;34.42
12949;BME280;6539;49.476;8.484;2022-09-12T12:16:16;100428.00;;;28.48;34.05
12949;BME280;6539;49.476;8.484;2022-09-12T12:18:55;100433.91;;;28.50;34.39
12949;BME280;6539;49.476;8.484;2022-09-12T12:27:00;100411.16;;;28.37;34.43
12949;BME280;6539;49.476;8.484;2022-09-12T12:29:43;100408.34;;;28.37;35.21
12949;BME280;6539;49.476;8.484;2022-09-12T12:34:43;100410.06;;;28.46;34.58
12949;BME280;6539;49.476;8.484;2022-09-12T12:55:45;100380.44;;;28.52;33.16
12949;BME280;6539;49.476;8.484;2022-09-12T12:58:37;100388.28;;;28.65;32.89
12949;BME280;6539;49.476;8.484;2022-09-12T13:01:18;100375.72;;;28.66;32.98
12949;BME280;6539;49.476;8.484;2022-09-12T13:03:59;100376.44;;;28.42;32.99
12949;BME280;6539;49.476;8.484;2022-09-12T13:06:36;100376.69;;;28.44;32.37
12949;BME280;6539;49.476;8.484;2022-09-12T13:09:23;100365.91;;;28.43;33.02
12949;BME280;6539;49.476;8.484;2022-09-12T13:12:07;100365.72;;;28.35;32.77
12949;BME280;6539;49.476;8.484;2022-09-12T13:14:50;100362.31;;;28.42;32.96
12949;BME280;6539;49.476;8.484;2022-09-12T13:17:38;100350.84;;;28.35;32.70
12949;BME280;6539;49.476;8.484;2022-09-12T13:20:16;100356.72;;;28.37;33.55
12949;BME280;6539;49.476;8.484;2022-09-12T13:22:49;100364.53;;;28.25;33.30
12949;BME280;6539;49.476;8.484;2022-09-12T13:25:36;100353.66;;;28.11;34.39
12949;BME280;6539;49.476;8.484;2022-09-12T13:31:27;100346.78;;;28.30;34.05
12949;BME280;6539;49.476;8.484;2022-09-12T13:33:50;100348.44;;;28.44;33.96
12949;BME280;6539;49.476;8.484;2022-09-12T13:45:38;100338.72;;;28.16;33.34
12949;BME280;6539;49.476;8.484;2022-09-12T13:48:10;100335.25;;;28.28;33.23
12949;BME280;6539;49.476;8.484;2022-09-12T13:50:57;100330.78;;;28.14;32.77
12949;BME280;6539;49.476;8.484;2022-09-12T13:53:41;100317.94;;;28.13;33.82
12949;BME280;6539;49.476;8.484;2022-09-12T13:56:18;100324.84;;;28.18;34.54
12949;BME280;6539;49.476;8.484;2022-09-12T13:58:59;100315.13;;;28.13;34.25
12949;BME280;6539;49.476;8.484;2022-09-12T14:01:42;100310.59;;;28.05;33.57
12949;BME280;6539;49.476;8.484;2022-09-12T14:04:18;100308.38;;;27.92;34.28
12949;BME280;6539;49.476;8.484;2022-09-12T14:07:21;100306.09;;;27.90;33.88
12949;BME280;6539;49.476;8.484;2022-09-12T14:09:59;100304.25;;;27.93;32.70
12949;BME280;6539;49.476;8.484;2022-09-12T14:12:35;100302.19;;;27.93;33.93
12949;BME280;6539;49.476;8.484;2022-09-12T14:15:05;100300.59;;;27.74;33.95
12949;BME280;6539;49.476;8.484;2022-09-12T14:17:37;100299.47;;;27.53;33.02
12949;BME280;6539;49.476;8.484;2022-09-12T14:20:14;100302.78;;;27.57;32.91
12949;BME280;6539;49.476;8.484;2022-09-12T14:22:44;100301.44;;;27.63;32.60
12949;BME280;6539;49.476;8.484;2022-09-12T14:25:22;100297.84;;;27.63;32.52
12949;BME280;6539;49.476;8.484;2022-09-12T14:27:55;100304.00;;;27.67;32.59
12949;BME280;6539;49.476;8.484;2022-09-12T14:30:30;100295.53;;;27.67;33.06
12949;BME280;6539;49.476;8.484;2022-09-12T14:38:40;100290.38;;;27.36;33.04
12949;BME280;6539;49.476;8.484;2022-09-12T14:41:12;100287.63;;;27.25;32.94
12949;BME280;6539;49.476;8.484;2022-09-12T14:43:44;100287.44;;;27.11;33.83
12949;BME280;6539;49.476;8.484;2022-09-12T14:46:39;100286.44;;;27.09;34.10
12949;BME280;6539;49.476;8.484;2022-09-12T14:57:29;100264.31;;;26.72;32.59
12949;BME280;6539;49.476;8.484;2022-09-12T14:59:49;100255.88;;;26.72;34.28
12949;BME280;6539;49.476;8.484;2022-09-12T15:02:24;100257.47;;;26.62;34.10
12949;BME280;6539;49.476;8.484;2022-09-12T15:07:44;100252.63;;;26.57;35.12
12949;BME280;6539;49.476;8.484;2022-09-12T15:10:37;100242.91;;;26.53;34.70
12949;BME280;6539;49.476;8.484;2022-09-12T15:15:42;100234.28;;;26.39;34.75
12949;BME280;6539;49.476;8.484;2022-09-12T15:18:08;100231.72;;;26.41;35.89
12949;BME280;6539;49.476;8.484;2022-09-12T15:20:42;100234.06;;;26.32;34.74
12949;BME280;6539;49.476;8.484;2022-09-12T15:25:47;100232.53;;;26.31;36.04
12949;BME280;6539;49.476;8.484;2022-09-12T15:28:23;100226.91;;;26.31;36.46
12949;BME280;6539;49.476;8.484;2022-09-12T15:30:54;100230.50;;;26.26;35.55
12949;BME280;6539;49.476;8.484;2022-09-12T15:33:25;100233.56;;;26.28;35.64
12949;BME280;6539;49.476;8.484;2022-09-12T15:35:53;100225.13;;;26.28;35.65
12949;BME280;6539;49.476;8.484;2022-09-12T15:38:19;100227.94;;;26.28;35.04
12949;BME280;6539;49.476;8.484;2022-09-12T15:40:51;100227.16;;;26.27;35.54
12949;BME280;6539;49.476;8.484;2022-09-12T15:43:19;100221.53;;;26.27;35.03
12949;BME280;6539;49.476;8.484;2022-09-12T15:45:49;100223.84;;;26.23;34.67
12949;BME280;6539;49.476;8.484;2022-09-12T15:48:16;100218.22;;;26.23;35.54
12949;BME280;6539;49.476;8.484;2022-09-12T15:50:42;100217.50;;;26.12;34.79
12949;BME280;6539;49.476;8.484;2022-09-12T15:53:15;100218.78;;;26.11;35.11
12949;BME280;6539;49.476;8.484;2022-09-12T15:55:42;100213.16;;;26.11;35.51
12949;BME280;6539;49.476;8.484;2022-09-12T15:58:09;100213.94;;;26.11;35.31
12949;BME280;6539;49.476;8.484;2022-09-12T16:00:35;100205.50;;;26.11;35.24
12949;BME280;6539;49.476;8.484;2022-09-12T16:03:01;100207.25;;;26.03;34.57
12949;BME280;6539;49.476;8.484;2022-09-12T16:05:27;100206.78;;;25.94;35.01
12949;BME280;6539;49.476;8.484;2022-09-12T16:07:54;100203.19;;;25.93;34.95
12949;BME280;6539;49.476;8.484;2022-09-12T16:10:27;100201.66;;;25.92;34.96
12949;BME280;6539;49.476;8.484;2022-09-12T16:12:53;100199.63;;;25.93;35.21
12949;BME280;6539;49.476;8.484;2022-09-12T16:15:24;100196.31;;;25.94;35.83
12949;BME280;6539;49.476;8.484;2022-09-12T16:17:50;100198.34;;;25.94;35.88
12949;BME280;6539;49.476;8.484;2022-09-12T16:20:17;100193.75;;;25.96;36.80
12949;BME280;6539;49.476;8.484;2022-09-12T16:22:43;100194.25;;;25.95;37.40
12949;BME280;6539;49.476;8.484;2022-09-12T16:25:10;100191.19;;;25.93;36.96
12949;BME280;6539;49.476;8.484;2022-09-12T16:27:36;100188.88;;;25.91;36.44
12949;BME280;6539;49.476;8.484;2022-09-12T16:30:07;100185.34;;;25.85;36.16
12949;BME280;6539;49.476;8.484;2022-09-12T16:32:34;100183.28;;;25.86;36.61
12949;BME280;6539;49.476;8.484;2022-09-12T16:35:00;100176.38;;;25.87;36.46
12949;BME280;6539;49.476;8.484;2022-09-12T16:37:27;100170.25;;;25.83;36.67
12949;BME280;6539;49.476;8.484;2022-09-12T16:39:55;100183.81;;;25.79;36.09
12949;BME280;6539;49.476;8.484;2022-09-12T16:42:21;100178.97;;;25.79;36.45
12949;BME280;6539;49.476;8.484;2022-09-12T16:44:49;100178.72;;;25.77;37.29
12949;BME280;6539;49.476;8.484;2022-09-12T16:47:15;100179.97;;;25.76;37.92
12949;BME280;6539;49.476;8.484;2022-09-12T16:49:41;100177.44;;;25.73;37.39